Mississippi — AEUI — position and weather

sailwx.info

Track history (hours):
 
Tides and Currents Weather Stations Pressure Air Temp Water Temp Dewpoint Dewpoint Depression Visibility Wind Speed Wind Dir Waves Ship Positions

Mississippi

Last reported at 2018-Apr-23 02:46 UTC. Time now 2018-May-20 14:01 UTC.
Position N 32°37' W 091°09'.
Warning: this ship's position is 27 days out of date.

Length 100 m.

Type: Tow > 200 m length. MMSI: 38924000.

Date/timePositionNaut miles runAvg speedWind from/ knotsBaromVisibWave heightAir tempDewpointWater temp
2018-Apr-23 02:46N 32°37' W 091°09'2 7.7
2018-Apr-23 02:30N 32°35' W 091°08'6 6.2
2018-Apr-23 01:34N 32°29' W 091°07'0 8.2
2018-Apr-23 01:30N 32°29' W 091°07'4 7.3
2018-Apr-23 01:00N 32°27' W 091°04'3 6.8
2018-Apr-23 00:30N 32°25' W 091°00'4 7.3
2018-Apr-23 00:00N 32°21' W 090°60'4 7.5
2018-Apr-22 23:30N 32°21' W 090°55'2 4.7
2018-Apr-22 23:00N 32°22' W 090°53'2 3.4
2018-Apr-22 22:30N 32°23' W 090°54'1 1.3
2018-Apr-22 21:58N 32°23' W 090°54'0 0.0
2018-Apr-22 21:29N 32°23' W 090°54'0 0.0
2018-Apr-22 21:00N 32°23' W 090°54'0 0.0
2018-Apr-22 20:29N 32°23' W 090°54'0 0.0
2018-Apr-22 20:00N 32°23' W 090°54'0 0.0
2018-Apr-22 19:30N 32°23' W 090°54'0 0.0
2018-Apr-22 18:58N 32°23' W 090°54'0 0.0
2018-Apr-22 18:30N 32°23' W 090°54'0 0.0
2018-Apr-22 17:59N 32°23' W 090°54'0 0.0
2018-Apr-22 17:27N 32°23' W 090°54'0 0.0
2018-Apr-22 17:00N 32°23' W 090°54'0 0.0
2018-Apr-22 16:30N 32°23' W 090°54'0 0.0
2018-Apr-22 15:58N 32°23' W 090°54'0 0.0
2018-Apr-22 15:30N 32°23' W 090°54'0 0.0
2018-Apr-22 15:00N 32°23' W 090°54'0 0.0
2018-Apr-22 14:30N 32°23' W 090°54'1 2.9
2018-Apr-22 14:00N 32°23' W 090°53'2 3.9
2018-Apr-22 13:30N 32°21' W 090°53'3 5.3
2018-Apr-22 13:00N 32°19' W 090°55'2 4.1
2018-Apr-22 12:30N 32°17' W 090°56'3 5.6
2018-Apr-22 12:00N 32°15' W 090°59'4 7.8
2018-Apr-22 11:30N 32°11' W 090°60'4 7.2
2018-Apr-22 11:00N 32°08' W 091°01'5 6.6
2018-Apr-22 10:18N 32°08' W 091°06'5 7.4
2018-Apr-22 09:38N 32°03' W 091°04'  
2018-Apr-19 05:05N 32°07' W 091°07'111.7
2018-Apr-19 05:00N 32°08' W 091°06'611.1
2018-Apr-19 04:30N 32°10' W 091°00'714.6
2018-Apr-19 04:00N 32°17' W 090°57'510.7
2018-Apr-19 03:30N 32°21' W 090°53'1 1.4
2018-Apr-19 03:00N 32°20' W 090°54'510.0
2018-Apr-19 02:30N 32°21' W 090°60'612.8
2018-Apr-19 02:00N 32°26' W 091°04'814.3
2018-Apr-19 01:28N 32°34' W 091°06'  
Track history (hours):
 
Tides and Currents Weather Stations Pressure Air Temp Water Temp Dewpoint Dewpoint Depression Visibility Wind Speed Wind Dir Waves Ship Positions

Mississippi

Last reported at 2018-Apr-23 02:46 UTC. Time now 2018-May-20 14:01 UTC.
Position N 32°37' W 091°09'.
Warning: this ship's position is 27 days out of date.

Length 100 m.

Type: Tow > 200 m length. MMSI: 38924000.

Date/timePositionNaut miles runAvg speedWind from/ knotsBaromVisibWave heightAir tempDewpointWater temp
2018-Apr-23 02:46N 32°37' W 091°09'2 7.7
2018-Apr-23 02:30N 32°35' W 091°08'6 6.2
2018-Apr-23 01:34N 32°29' W 091°07'0 8.2
2018-Apr-23 01:30N 32°29' W 091°07'4 7.3
2018-Apr-23 01:00N 32°27' W 091°04'3 6.8
2018-Apr-23 00:30N 32°25' W 091°00'4 7.3
2018-Apr-23 00:00N 32°21' W 090°60'4 7.5
2018-Apr-22 23:30N 32°21' W 090°55'2 4.7
2018-Apr-22 23:00N 32°22' W 090°53'2 3.4
2018-Apr-22 22:30N 32°23' W 090°54'1 1.3
2018-Apr-22 21:58N 32°23' W 090°54'0 0.0
2018-Apr-22 21:29N 32°23' W 090°54'0 0.0
2018-Apr-22 21:00N 32°23' W 090°54'0 0.0
2018-Apr-22 20:29N 32°23' W 090°54'0 0.0
2018-Apr-22 20:00N 32°23' W 090°54'0 0.0
2018-Apr-22 19:30N 32°23' W 090°54'0 0.0
2018-Apr-22 18:58N 32°23' W 090°54'0 0.0
2018-Apr-22 18:30N 32°23' W 090°54'0 0.0
2018-Apr-22 17:59N 32°23' W 090°54'0 0.0
2018-Apr-22 17:27N 32°23' W 090°54'0 0.0
2018-Apr-22 17:00N 32°23' W 090°54'0 0.0
2018-Apr-22 16:30N 32°23' W 090°54'0 0.0
2018-Apr-22 15:58N 32°23' W 090°54'0 0.0
2018-Apr-22 15:30N 32°23' W 090°54'0 0.0
2018-Apr-22 15:00N 32°23' W 090°54'0 0.0
2018-Apr-22 14:30N 32°23' W 090°54'1 2.9
2018-Apr-22 14:00N 32°23' W 090°53'2 3.9
2018-Apr-22 13:30N 32°21' W 090°53'3 5.3
2018-Apr-22 13:00N 32°19' W 090°55'2 4.1
2018-Apr-22 12:30N 32°17' W 090°56'3 5.6
2018-Apr-22 12:00N 32°15' W 090°59'4 7.8
2018-Apr-22 11:30N 32°11' W 090°60'4 7.2
2018-Apr-22 11:00N 32°08' W 091°01'5 6.6
2018-Apr-22 10:18N 32°08' W 091°06'5 7.4
2018-Apr-22 09:38N 32°03' W 091°04'  
2018-Apr-19 05:05N 32°07' W 091°07'111.7
2018-Apr-19 05:00N 32°08' W 091°06'611.1
2018-Apr-19 04:30N 32°10' W 091°00'714.6
2018-Apr-19 04:00N 32°17' W 090°57'510.7
2018-Apr-19 03:30N 32°21' W 090°53'1 1.4
2018-Apr-19 03:00N 32°20' W 090°54'510.0
2018-Apr-19 02:30N 32°21' W 090°60'612.8
2018-Apr-19 02:00N 32°26' W 091°04'814.3
2018-Apr-19 01:28N 32°34' W 091°06'  

Dump ship's entire track history